Aqua Ramon, Colorado
Current Conditions -  °F | °C
As of 3:10 AM on Tuesday 21 Oct 2014 (Local Time) from KRCV Reporting Station
Clear Clear  
Wind Chill: 35°   Ceiling: Unl
Heat Index: 39°   Visibility: 10mi
Dew Point: 32°   Wind: 5mph
Humidity: 76%   Direction: 260°W
Pressure: 30.26"   Gusts: NA
Location:  37.6359°N, 106.449°W
Report Text: KRCV 210910Z AUTO 26004KT 10SM CLR 04/00 A3026 RMK AO2 T00380000
Loading
Personal Weather Stations






























Interactive Weather Map New forecast layout! Learn more

10-Day Weather Forecast

Advertisements
Track Severe Weather on mobile